Time;durP1;ratioP1;P1;durP2;ratioP2;P2;SDS_P1;SDS_P2;PMS_P1;PMS_P2;Temp;Humidity;BMP_temperature;BMP_pressure;BME280_temperature;BME280_humidity;BME280_pressure;Samples;Min_cycle;Max_cycle;Signal;HPM_P1;HPM_P2
2022/01/07 00:01:26;;;;;;;9.60;4.32;;;3.90;99.90;;;;;;5089883;28;20028;-78
2022/01/07 00:03:52;;;;;;;13.43;4.45;;;3.90;99.90;;;;;;5087635;28;20031;-79
2022/01/07 00:06:18;;;;;;;11.82;4.25;;;3.90;99.90;;;;;;5090188;28;20040;-79
2022/01/07 00:08:44;;;;;;;11.35;4.30;;;3.90;99.90;;;;;;5093712;28;20371;-78
2022/01/07 00:11:09;;;;;;;11.43;4.20;;;3.90;99.90;;;;;;5093683;28;20055;-78
2022/01/07 00:13:35;;;;;;;11.85;5.00;;;3.90;99.90;;;;;;5121201;27;20040;-78
2022/01/07 00:16:01;;;;;;;10.60;4.03;;;3.90;99.90;;;;;;5087536;28;20043;-79
2022/01/07 00:18:27;;;;;;;14.45;4.50;;;3.90;99.90;;;;;;5089671;28;20771;-78
2022/01/07 00:20:53;;;;;;;15.23;4.40;;;3.90;99.90;;;;;;5092894;28;20115;-78
2022/01/07 00:23:20;;;;;;;17.83;5.18;;;3.90;99.90;;;;;;5094007;28;20127;-78
2022/01/07 00:25:46;;;;;;;8.90;3.55;;;3.80;99.90;;;;;;5091078;28;20489;-78
2022/01/07 00:28:12;;;;;;;9.55;3.53;;;3.80;99.90;;;;;;5089461;28;20119;-77
2022/01/07 00:30:38;;;;;;;13.23;4.93;;;3.90;99.90;;;;;;5091019;28;20085;-79
2022/01/07 00:33:06;;;;;;;17.65;5.40;;;3.90;99.90;;;;;;5089277;28;20075;-78
2022/01/07 00:35:32;;;;;;;13.63;4.72;;;3.80;99.90;;;;;;5094179;28;20084;-78
2022/01/07 00:37:57;;;;;;;11.02;4.45;;;3.80;99.90;;;;;;5086283;28;20060;-78
2022/01/07 00:40:24;;;;;;;12.07;4.55;;;3.80;99.90;;;;;;5094591;28;20104;-76
2022/01/07 00:42:51;;;;;;;12.27;4.50;;;3.80;99.90;;;;;;5090190;28;20044;-78
2022/01/07 00:45:22;;;;;;;10.25;3.58;;;3.70;99.90;;;;;;5084468;28;20055;-79
2022/01/07 00:47:48;;;;;;;14.82;4.72;;;3.70;99.90;;;;;;5089823;28;20059;-78
2022/01/07 00:50:15;;;;;;;17.63;5.70;;;3.70;99.90;;;;;;5094342;28;20131;-77
2022/01/07 00:52:40;;;;;;;11.30;4.10;;;3.60;99.90;;;;;;5094186;28;20089;-78
2022/01/07 00:55:08;;;;;;;13.88;4.28;;;3.60;99.90;;;;;;5069075;28;20044;-78
2022/01/07 00:57:33;;;;;;;11.05;4.00;;;3.50;99.90;;;;;;5074450;28;20093;-77
2022/01/07 00:59:59;;;;;;;12.98;4.45;;;3.50;99.90;;;;;;5089298;28;20483;-77
2022/01/07 01:02:25;;;;;;;12.23;4.18;;;3.50;99.90;;;;;;5087609;28;20028;-77
2022/01/07 01:04:51;;;;;;;15.45;4.60;;;3.40;99.90;;;;;;5092732;28;20031;-78
2022/01/07 01:07:16;;;;;;;15.85;4.18;;;3.40;99.90;;;;;;5090281;28;20050;-77
2022/01/07 01:09:42;;;;;;;11.57;4.38;;;3.30;99.90;;;;;;5087319;28;20540;-77
2022/01/07 01:12:09;;;;;;;12.82;4.32;;;3.30;99.90;;;;;;5080110;28;20079;-77
2022/01/07 01:14:35;;;;;;;18.92;4.40;;;3.20;99.90;;;;;;5085619;28;20040;-77
2022/01/07 01:17:01;;;;;;;13.85;4.68;;;3.50;99.90;;;;;;5086009;28;20034;-77
2022/01/07 01:19:27;;;;;;;11.07;4.15;;;3.20;99.90;;;;;;5089743;28;20548;-76
2022/01/07 01:21:54;;;;;;;15.00;4.47;;;3.20;99.90;;;;;;5091263;28;20118;-76
2022/01/07 01:24:19;;;;;;;11.82;4.03;;;3.10;99.90;;;;;;5086606;28;20035;-77
2022/01/07 01:26:45;;;;;;;13.02;4.95;;;3.20;99.90;;;;;;5085015;28;20042;-76
2022/01/07 01:29:10;;;;;;;12.88;5.07;;;3.20;99.90;;;;;;5090732;28;20045;-77
2022/01/07 01:31:38;;;;;;;11.50;4.38;;;3.10;99.90;;;;;;5089840;28;20049;-77
2022/01/07 01:34:04;;;;;;;16.60;5.43;;;3.00;99.90;;;;;;5084775;28;20068;-76
2022/01/07 01:36:31;;;;;;;15.60;5.25;;;3.00;99.90;;;;;;5088292;28;20043;-77
2022/01/07 01:38:56;;;;;;;14.60;4.78;;;3.00;99.90;;;;;;5081000;28;20180;-77
2022/01/07 01:41:22;;;;;;;15.98;4.85;;;3.00;99.90;;;;;;5088039;28;20060;-76
2022/01/07 01:43:49;;;;;;;12.73;4.90;;;3.00;99.90;;;;;;5084733;28;20086;-77
2022/01/07 01:46:18;;;;;;;15.07;5.32;;;3.10;99.90;;;;;;5088968;28;20044;-76
2022/01/07 01:48:45;;;;;;;13.77;5.70;;;2.90;99.90;;;;;;5085094;28;20078;-76
2022/01/07 01:51:12;;;;;;;18.58;5.40;;;2.80;99.90;;;;;;5119051;27;20409;-77
2022/01/07 01:53:38;;;;;;;9.93;5.25;;;2.80;99.90;;;;;;5086193;28;20032;-76
2022/01/07 01:56:04;;;;;;;20.52;5.88;;;2.80;99.90;;;;;;5086924;28;20044;-76
2022/01/07 01:58:30;;;;;;;16.02;6.15;;;2.80;99.90;;;;;;5082304;28;20036;-76
2022/01/07 02:00:56;;;;;;;13.50;5.30;;;2.80;99.90;;;;;;5090923;28;20035;-76
2022/01/07 02:03:22;;;;;;;14.45;5.97;;;2.80;99.90;;;;;;5083615;28;20474;-76
2022/01/07 02:05:48;;;;;;;14.70;5.80;;;2.80;99.90;;;;;;5083825;28;20036;-76
2022/01/07 02:08:14;;;;;;;12.82;5.95;;;2.80;99.90;;;;;;5086050;28;20122;-76
2022/01/07 02:10:40;;;;;;;15.95;7.10;;;2.80;99.90;;;;;;5084199;28;20139;-76
2022/01/07 02:13:06;;;;;;;14.80;6.65;;;2.80;99.90;;;;;;5086066;28;20501;-77
2022/01/07 02:15:31;;;;;;;12.55;6.43;;;2.80;99.90;;;;;;5088846;28;20105;-76
2022/01/07 02:17:57;;;;;;;14.27;6.10;;;2.70;99.90;;;;;;5079560;28;20097;-77
2022/01/07 02:20:25;;;;;;;21.00;6.75;;;2.80;99.90;;;;;;5081014;28;20038;-76
2022/01/07 02:22:53;;;;;;;12.98;6.28;;;2.80;99.90;;;;;;5087084;28;20036;-76
2022/01/07 02:25:20;;;;;;;11.68;6.35;;;2.80;99.90;;;;;;5082718;28;20036;-76
2022/01/07 02:27:46;;;;;;;13.27;7.45;;;2.80;99.90;;;;;;5069023;28;20126;-77
2022/01/07 02:30:16;;;;;;;16.17;7.68;;;2.80;99.90;;;;;;5086350;28;20036;-76
2022/01/07 02:32:42;;;;;;;20.77;7.57;;;2.80;99.90;;;;;;5116111;27;20730;-76
2022/01/07 02:35:08;;;;;;;15.25;8.02;;;2.80;99.90;;;;;;5084440;28;20048;-76
2022/01/07 02:37:35;;;;;;;13.70;7.65;;;2.70;99.90;;;;;;5088554;28;20058;-76
2022/01/07 02:40:02;;;;;;;17.88;7.97;;;2.70;99.90;;;;;;5088348;28;20032;-76
2022/01/07 02:42:28;;;;;;;15.90;8.10;;;3.50;99.90;;;;;;5083751;28;20039;-77
2022/01/07 02:44:53;;;;;;;17.77;8.25;;;2.70;99.90;;;;;;5087653;28;20053;-77
2022/01/07 02:47:21;;;;;;;12.68;7.28;;;2.70;99.90;;;;;;5082423;28;20079;-77
2022/01/07 02:49:48;;;;;;;12.20;7.80;;;2.80;99.90;;;;;;5089360;28;20047;-77
2022/01/07 02:52:14;;;;;;;14.55;8.40;;;2.70;99.90;;;;;;5085663;28;20075;-76
2022/01/07 02:54:39;;;;;;;11.90;7.25;;;2.80;99.90;;;;;;5083676;28;20083;-76
2022/01/07 02:57:05;;;;;;;13.75;8.35;;;2.80;99.90;;;;;;5086444;28;20047;-77
2022/01/07 02:59:31;;;;;;;15.23;8.57;;;2.80;99.90;;;;;;5085604;28;20461;-76
2022/01/07 03:01:57;;;;;;;12.13;8.35;;;2.70;99.90;;;;;;5085754;28;20648;-76
2022/01/07 03:04:24;;;;;;;12.70;8.45;;;2.80;99.90;;;;;;5079813;28;20430;-76
2022/01/07 03:06:50;;;;;;;14.70;8.52;;;2.80;99.90;;;;;;5080065;28;20521;-76
2022/01/07 03:09:15;;;;;;;11.57;7.20;;;2.80;99.90;;;;;;5117219;27;20040;-76
2022/01/07 03:11:41;;;;;;;12.27;7.82;;;2.80;99.90;;;;;;5085229;28;20046;-77
2022/01/07 03:14:07;;;;;;;15.20;8.02;;;2.80;99.90;;;;;;5080352;28;20055;-77
2022/01/07 03:16:33;;;;;;;13.70;8.48;;;2.80;99.90;;;;;;5115613;27;20086;-77
2022/01/07 03:18:58;;;;;;;13.75;8.80;;;2.80;99.90;;;;;;5081674;28;20094;-76
2022/01/07 03:21:24;;;;;;;13.30;8.18;;;2.90;99.90;;;;;;5084197;28;20032;-77
2022/01/07 03:23:50;;;;;;;13.68;8.07;;;2.90;99.90;;;;;;5083664;28;20071;-76
2022/01/07 03:26:15;;;;;;;15.40;9.23;;;2.80;99.90;;;;;;5081471;28;20034;-76
2022/01/07 03:28:43;;;;;;;14.70;8.70;;;2.80;99.90;;;;;;5081999;28;20040;-76
2022/01/07 03:31:08;;;;;;;12.65;8.13;;;2.80;99.90;;;;;;5110415;27;20044;-76
2022/01/07 03:33:34;;;;;;;15.88;8.70;;;2.90;99.90;;;;;;5112313;27;20040;-77
2022/01/07 03:36:00;;;;;;;15.15;9.25;;;2.90;99.90;;;;;;5082396;28;20087;-77
2022/01/07 03:38:26;;;;;;;17.02;8.45;;;2.90;99.90;;;;;;5078588;28;20033;-76
2022/01/07 03:40:51;;;;;;;12.80;8.68;;;3.00;99.90;;;;;;5112876;27;20493;-77
2022/01/07 03:43:17;;;;;;;14.65;8.25;;;2.90;99.90;;;;;;5086386;28;20082;-76
2022/01/07 03:45:43;;;;;;;13.32;7.82;;;3.00;99.90;;;;;;5082796;28;20031;-77
2022/01/07 03:48:08;;;;;;;10.88;8.10;;;3.00;99.90;;;;;;5080007;28;20040;-76
2022/01/07 03:50:34;;;;;;;15.27;8.57;;;3.20;99.90;;;;;;5084483;28;20071;-77
2022/01/07 03:53:00;;;;;;;12.32;7.93;;;3.00;99.90;;;;;;5085582;28;20040;-76
2022/01/07 03:55:28;;;;;;;14.93;8.02;;;3.00;99.90;;;;;;5114770;27;20050;-77
2022/01/07 03:57:53;;;;;;;10.57;7.63;;;3.00;99.90;;;;;;5086647;28;20048;-76
2022/01/07 04:00:23;;;;;;;13.88;7.57;;;3.00;99.90;;;;;;5085488;28;20036;-77
2022/01/07 04:02:50;;;;;;;18.05;8.27;;;3.10;99.90;;;;;;5080703;28;20040;-76
2022/01/07 04:05:19;;;;;;;16.02;8.75;;;3.00;99.90;;;;;;5118335;27;20044;-76
2022/01/07 04:07:45;;;;;;;11.20;7.45;;;3.00;99.90;;;;;;5083412;28;20047;-77
2022/01/07 04:10:11;;;;;;;10.70;7.70;;;3.00;99.90;;;;;;5084638;28;20024;-76
2022/01/07 04:12:36;;;;;;;9.35;6.85;;;3.00;99.90;;;;;;5067567;28;20558;-77
2022/01/07 04:15:09;;;;;;;11.98;7.93;;;3.00;99.90;;;;;;5115922;27;20059;-77
2022/01/07 04:17:41;;;;;;;14.32;7.40;;;3.00;99.90;;;;;;5098623;28;20040;-77
2022/01/07 04:20:09;;;;;;;13.27;7.90;;;3.00;99.90;;;;;;5084905;28;20109;-77
2022/01/07 04:22:36;;;;;;;12.57;7.25;;;3.00;99.90;;;;;;5085511;28;20048;-76
2022/01/07 04:25:04;;;;;;;12.05;7.05;;;2.90;99.90;;;;;;5071276;28;20431;-77
2022/01/07 04:27:31;;;;;;;12.75;7.38;;;3.00;99.90;;;;;;5112119;27;20483;-77
2022/01/07 04:29:56;;;;;;;13.05;8.07;;;3.00;99.90;;;;;;5074145;28;20040;-76
2022/01/07 04:32:22;;;;;;;11.80;8.10;;;3.00;99.90;;;;;;5078551;28;20075;-77
2022/01/07 04:34:49;;;;;;;13.05;7.65;;;3.00;99.90;;;;;;5075132;28;20067;-77
2022/01/07 04:37:14;;;;;;;13.45;7.05;;;3.00;99.90;;;;;;5082272;28;20041;-77
2022/01/07 04:39:40;;;;;;;13.23;7.13;;;3.10;99.90;;;;;;5081666;28;20110;-77
2022/01/07 04:42:06;;;;;;;13.75;7.50;;;3.00;99.90;;;;;;5079996;28;20105;-76
2022/01/07 04:44:32;;;;;;;13.88;7.82;;;3.10;99.90;;;;;;5084024;28;20042;-78
2022/01/07 04:46:57;;;;;;;9.30;7.13;;;3.10;99.90;;;;;;5118062;27;20040;-77
2022/01/07 04:49:23;;;;;;;11.82;6.82;;;3.10;99.90;;;;;;5087230;28;20044;-77
2022/01/07 04:51:48;;;;;;;10.80;6.65;;;3.10;99.90;;;;;;5068092;28;20393;-77
2022/01/07 04:54:14;;;;;;;10.38;6.53;;;3.10;99.90;;;;;;5080206;28;20437;-77
2022/01/07 04:56:40;;;;;;;9.48;6.57;;;3.10;99.90;;;;;;5117434;27;20530;-75
2022/01/07 04:59:06;;;;;;;9.00;6.88;;;3.10;99.90;;;;;;5086699;28;20044;-75
2022/01/07 05:01:31;;;;;;;11.27;7.03;;;3.10;99.90;;;;;;5088664;28;20040;-75
2022/01/07 05:03:57;;;;;;;10.98;7.10;;;3.20;99.90;;;;;;5089134;28;20043;-75
2022/01/07 05:08:54;;;;;;;9.85;5.85;;;3.10;99.90;;;;;;5092048;28;20047;-74
2022/01/07 05:11:19;;;;;;;12.93;6.65;;;3.10;99.90;;;;;;5090312;28;20044;-75
2022/01/07 05:13:45;;;;;;;8.45;5.38;;;3.20;99.90;;;;;;5091438;28;20114;-75
2022/01/07 05:16:10;;;;;;;10.27;5.70;;;3.10;99.90;;;;;;5086678;28;20044;-75
2022/01/07 05:18:36;;;;;;;7.45;4.88;;;3.10;99.90;;;;;;5088343;28;20043;-75
2022/01/07 05:21:02;;;;;;;10.02;5.78;;;3.10;99.90;;;;;;5085427;28;20382;-75
2022/01/07 05:23:27;;;;;;;9.77;5.80;;;3.10;99.90;;;;;;5084318;28;20119;-75
2022/01/07 05:25:53;;;;;;;10.02;5.85;;;3.10;99.90;;;;;;5089661;28;20048;-74
2022/01/07 05:28:18;;;;;;;8.18;6.15;;;3.10;99.90;;;;;;5085196;28;20035;-75
2022/01/07 05:30:44;;;;;;;9.18;5.30;;;3.10;99.90;;;;;;5086804;28;20041;-74
2022/01/07 05:33:10;;;;;;;7.43;6.53;;;3.10;99.90;;;;;;5085488;28;20059;-75
2022/01/07 05:35:35;;;;;;;8.05;5.30;;;3.10;99.90;;;;;;5083554;28;20089;-74
2022/01/07 05:38:01;;;;;;;7.65;5.72;;;3.20;99.90;;;;;;5082811;28;20104;-75
2022/01/07 05:40:26;;;;;;;9.07;6.32;;;3.10;99.90;;;;;;5088940;28;20562;-75
2022/01/07 05:42:52;;;;;;;9.75;5.78;;;3.10;99.90;;;;;;5084228;28;20570;-75
2022/01/07 05:45:18;;;;;;;10.68;6.22;;;3.10;99.90;;;;;;5083619;28;20044;-75
2022/01/07 05:47:43;;;;;;;9.50;5.90;;;3.10;99.90;;;;;;5089130;28;20044;-75
2022/01/07 05:50:10;;;;;;;8.32;5.72;;;3.10;99.90;;;;;;5087423;28;20041;-75
2022/01/07 05:52:36;;;;;;;8.30;5.95;;;3.10;99.90;;;;;;5088555;28;20035;-75
2022/01/07 05:55:02;;;;;;;9.13;5.43;;;3.10;99.90;;;;;;5082385;28;20487;-74
2022/01/07 05:57:28;;;;;;;6.65;5.90;;;3.10;99.90;;;;;;5090309;28;20130;-75
2022/01/07 05:59:53;;;;;;;9.30;6.18;;;3.10;99.90;;;;;;5082332;28;20132;-75
2022/01/07 06:02:19;;;;;;;11.82;6.45;;;3.10;99.90;;;;;;5077919;28;20380;-75
2022/01/07 06:04:45;;;;;;;8.55;5.22;;;3.10;99.90;;;;;;5082040;28;20047;-74
2022/01/07 06:07:10;;;;;;;11.65;5.93;;;3.10;99.90;;;;;;5082993;28;20475;-74
2022/01/07 06:09:36;;;;;;;10.75;5.85;;;3.10;99.90;;;;;;5091383;28;20035;-74
2022/01/07 06:12:02;;;;;;;7.88;5.68;;;3.40;99.90;;;;;;5086291;28;20128;-74
2022/01/07 06:14:28;;;;;;;10.93;5.72;;;3.20;99.90;;;;;;5118051;27;20036;-74
2022/01/07 06:16:54;;;;;;;9.13;5.93;;;3.20;99.90;;;;;;5087458;28;20078;-74
2022/01/07 06:19:20;;;;;;;9.50;6.05;;;3.20;99.90;;;;;;5088958;28;20490;-75
2022/01/07 06:21:46;;;;;;;10.85;6.45;;;3.30;99.90;;;;;;5084116;28;20826;-74
2022/01/07 06:24:12;;;;;;;7.20;5.30;;;3.30;99.90;;;;;;5081203;28;20079;-75
2022/01/07 06:26:38;;;;;;;9.48;5.38;;;3.20;99.90;;;;;;5077683;28;20491;-74
2022/01/07 06:29:04;;;;;;;6.95;5.68;;;3.20;99.90;;;;;;5075628;28;20060;-74
2022/01/07 06:31:29;;;;;;;6.93;5.72;;;3.20;99.90;;;;;;5077637;28;20096;-74
2022/01/07 06:33:58;;;;;;;7.07;5.40;;;3.30;99.90;;;;;;5079771;28;20040;-74
2022/01/07 06:36:24;;;;;;;6.20;5.60;;;3.30;99.90;;;;;;5078164;28;20049;-75
2022/01/07 06:38:50;;;;;;;8.82;6.28;;;3.30;99.90;;;;;;5077480;28;20045;-74
2022/01/07 06:41:16;;;;;;;6.47;5.68;;;3.30;99.90;;;;;;5081070;28;20086;-75
2022/01/07 06:43:43;;;;;;;8.95;6.25;;;3.30;99.90;;;;;;5084701;28;20667;-75
2022/01/07 06:46:11;;;;;;;8.88;5.85;;;3.40;99.90;;;;;;5099204;27;20080;-75
2022/01/07 06:48:37;;;;;;;12.02;6.85;;;3.40;99.90;;;;;;5084937;28;20040;-75
2022/01/07 06:51:03;;;;;;;9.38;6.53;;;3.30;99.90;;;;;;5080818;28;20488;-75
2022/01/07 06:53:30;;;;;;;7.72;6.50;;;3.40;99.90;;;;;;5080514;28;20053;-75
2022/01/07 06:56:00;;;;;;;10.48;5.78;;;3.40;99.90;;;;;;5093366;27;20048;-75
2022/01/07 06:58:26;;;;;;;8.13;7.20;;;3.40;99.90;;;;;;5093567;27;20036;-74
2022/01/07 07:00:53;;;;;;;9.38;7.43;;;3.50;99.90;;;;;;5081039;28;20035;-75
2022/01/07 07:03:19;;;;;;;8.68;6.97;;;3.50;99.90;;;;;;5079950;28;20487;-75
2022/01/07 07:05:44;;;;;;;8.27;7.43;;;3.50;99.90;;;;;;5076712;28;20059;-75
2022/01/07 07:08:19;;;;;;;7.85;6.57;;;3.50;99.90;;;;;;5079562;28;20040;-75
2022/01/07 07:10:45;;;;;;;11.57;7.47;;;3.50;99.90;;;;;;5078302;28;20128;-75
2022/01/07 07:13:11;;;;;;;8.23;7.43;;;3.50;99.90;;;;;;5111592;27;20123;-75
2022/01/07 07:15:36;;;;;;;9.30;7.47;;;3.50;99.90;;;;;;5113330;27;20123;-75
2022/01/07 07:18:02;;;;;;;10.27;8.27;;;3.50;99.90;;;;;;5084844;28;20173;-75
2022/01/07 07:20:28;;;;;;;12.07;8.68;;;3.60;99.90;;;;;;5073812;28;20025;-75
2022/01/07 07:22:53;;;;;;;12.80;8.38;;;3.50;99.90;;;;;;5076042;28;20040;-74
2022/01/07 07:25:22;;;;;;;11.18;8.55;;;3.60;99.90;;;;;;5075200;28;20055;-75
2022/01/07 07:27:48;;;;;;;13.65;9.65;;;3.60;99.90;;;;;;5075454;28;20050;-75
2022/01/07 07:30:14;;;;;;;11.23;8.88;;;3.60;99.90;;;;;;5071557;28;20032;-75
2022/01/07 07:32:40;;;;;;;11.50;9.00;;;3.60;99.90;;;;;;5059881;28;20138;-78
2022/01/07 07:37:41;;;;;;;10.82;9.45;;;3.70;99.90;;;;;;5105652;27;20072;-78
2022/01/07 07:40:07;;;;;;;11.63;10.38;;;3.70;99.90;;;;;;5073793;28;20087;-78
2022/01/07 07:42:33;;;;;;;13.55;10.05;;;3.70;99.90;;;;;;5080941;28;20028;-78
2022/01/07 07:44:58;;;;;;;14.73;10.18;;;3.70;99.90;;;;;;5078690;28;20040;-78
2022/01/07 07:47:24;;;;;;;14.55;10.50;;;3.70;99.90;;;;;;5077238;28;20046;-77
2022/01/07 07:49:50;;;;;;;12.20;10.73;;;3.70;99.90;;;;;;5075993;28;20044;-77
2022/01/07 07:52:16;;;;;;;23.40;11.98;;;3.70;99.90;;;;;;5079288;28;20068;-77
2022/01/07 07:54:41;;;;;;;12.25;10.50;;;3.80;99.90;;;;;;5078172;28;20095;-78
2022/01/07 07:57:07;;;;;;;15.25;11.27;;;3.80;99.90;;;;;;5081542;28;20051;-77
2022/01/07 07:59:33;;;;;;;15.48;12.05;;;3.80;99.90;;;;;;5077846;28;20036;-78
2022/01/07 08:02:00;;;;;;;16.08;12.23;;;3.90;99.90;;;;;;5077876;28;20032;-78
2022/01/07 08:04:26;;;;;;;20.92;12.80;;;3.90;99.90;;;;;;5074648;28;20090;-77
2022/01/07 08:06:52;;;;;;;16.80;14.40;;;3.90;99.90;;;;;;5076946;28;20044;-78
2022/01/07 08:09:18;;;;;;;18.80;14.70;;;3.90;99.90;;;;;;5077551;28;20036;-78
2022/01/07 08:11:53;;;;;;;21.20;14.02;;;4.00;99.90;;;;;;5080096;28;20040;-78
2022/01/07 08:17:06;;;;;;;;;;;4.00;99.90;;;;;;5080715;28;20045;-78
2022/01/07 08:19:32;;;;;;;18.52;14.50;;;4.10;99.90;;;;;;5082072;28;19916;-78
2022/01/07 08:21:58;;;;;;;17.05;14.40;;;4.10;99.90;;;;;;5113569;27;20099;-77
2022/01/07 08:24:24;;;;;;;19.20;15.32;;;4.10;99.90;;;;;;5080742;28;20044;-78
2022/01/07 08:26:50;;;;;;;28.25;16.52;;;4.20;99.90;;;;;;5084020;28;20140;-77
2022/01/07 08:29:17;;;;;;;28.98;17.48;;;4.20;99.90;;;;;;5082726;28;20075;-78
2022/01/07 08:36:54;;;;;;;26.00;17.27;;;4.30;99.90;;;;;;5113930;27;20044;-78
2022/01/07 08:39:22;;;;;;;29.85;17.17;;;4.30;99.90;;;;;;5079884;28;20032;-78
2022/01/07 08:41:47;;;;;;;24.05;16.92;;;4.40;99.90;;;;;;5080957;28;20032;-78
2022/01/07 08:44:13;;;;;;;22.35;16.77;;;4.40;99.90;;;;;;5080085;28;20048;-77
2022/01/07 08:46:40;;;;;;;22.85;17.65;;;4.50;99.90;;;;;;5084143;28;20032;-78
2022/01/07 08:49:06;;;;;;;27.23;16.60;;;4.50;99.90;;;;;;5081354;28;20044;-78
2022/01/07 08:51:32;;;;;;;25.40;17.52;;;4.50;99.90;;;;;;5083668;28;20036;-78
2022/01/07 08:53:58;;;;;;;29.88;17.40;;;4.60;99.90;;;;;;5081471;28;20379;-78
2022/01/07 08:56:24;;;;;;;24.08;15.55;;;4.70;99.90;;;;;;5082550;28;20055;-78
2022/01/07 08:58:52;;;;;;;23.13;15.23;;;4.70;99.90;;;;;;5079468;28;20380;-78
2022/01/07 09:01:18;;;;;;;24.00;16.70;;;4.70;99.90;;;;;;5080126;28;20031;-77
2022/01/07 09:03:44;;;;;;;23.15;16.92;;;4.80;99.90;;;;;;5079904;28;20041;-78
2022/01/07 09:06:09;;;;;;;23.95;16.63;;;4.80;99.90;;;;;;5078218;28;20052;-78
2022/01/07 09:08:35;;;;;;;21.60;16.45;;;4.80;99.90;;;;;;5084526;28;20067;-78
2022/01/07 09:11:01;;;;;;;26.98;16.70;;;4.80;99.90;;;;;;5079024;28;20051;-78
2022/01/07 09:13:27;;;;;;;23.40;15.93;;;4.80;99.90;;;;;;5076661;28;20047;-78
2022/01/07 09:15:53;;;;;;;25.15;16.27;;;4.80;99.90;;;;;;5082411;28;20082;-78
2022/01/07 09:18:20;;;;;;;28.17;17.05;;;4.80;99.90;;;;;;5081486;28;20064;-78
2022/01/07 09:20:50;;;;;;;25.17;17.50;;;4.90;99.90;;;;;;5079203;28;20040;-78
2022/01/07 09:23:16;;;;;;;24.00;17.00;;;4.90;99.90;;;;;;5077116;28;20043;-79
2022/01/07 09:25:42;;;;;;;25.20;18.65;;;4.90;99.90;;;;;;5080846;28;20036;-79
2022/01/07 09:28:08;;;;;;;32.72;18.70;;;4.90;99.90;;;;;;5079067;28;20044;-78
2022/01/07 09:30:35;;;;;;;20.90;17.35;;;4.90;99.90;;;;;;5084456;28;20070;-79
2022/01/07 09:33:01;;;;;;;23.65;16.88;;;4.90;99.90;;;;;;5095076;27;20082;-79
2022/01/07 09:35:27;;;;;;;23.50;16.83;;;5.00;99.90;;;;;;5082492;28;20554;-78
2022/01/07 09:37:53;;;;;;;25.38;17.88;;;5.00;99.90;;;;;;5081559;28;20032;-78
2022/01/07 09:40:20;;;;;;;21.80;16.60;;;4.90;99.90;;;;;;5077756;28;20028;-80
2022/01/07 09:43:03;;;;;;;26.83;17.17;;;5.00;99.90;;;;;;5085974;28;20035;-80
2022/01/07 09:45:31;;;;;;;29.85;17.35;;;5.00;99.90;;;;;;5113641;27;20044;-80
2022/01/07 09:47:58;;;;;;;21.67;17.58;;;4.90;99.90;;;;;;5101697;27;20055;-80
2022/01/07 09:50:26;;;;;;;21.30;15.68;;;4.90;99.90;;;;;;5083049;28;20044;-79
2022/01/07 09:52:53;;;;;;;20.10;14.52;;;5.00;99.90;;;;;;5099821;27;20693;-80
2022/01/07 09:55:19;;;;;;;17.55;13.98;;;5.10;99.90;;;;;;5081480;28;20156;-80
2022/01/07 09:57:45;;;;;;;14.05;10.32;;;5.10;99.90;;;;;;5082859;28;20233;-79
2022/01/07 10:00:12;;;;;;;9.75;6.95;;;5.10;99.90;;;;;;5084315;28;20124;-80
2022/01/07 10:02:38;;;;;;;9.23;7.47;;;5.00;99.90;;;;;;5100970;27;20930;-79
2022/01/07 10:05:17;;;;;;;6.90;4.80;;;5.00;99.90;;;;;;5118022;27;20040;-80
2022/01/07 10:07:44;;;;;;;2.92;1.77;;;4.90;99.90;;;;;;5082376;28;20045;-80
2022/01/07 10:10:14;;;;;;;5.18;1.48;;;4.80;99.90;;;;;;5080592;28;20044;-80
2022/01/07 10:12:53;;;;;;;2.78;0.70;;;4.70;99.90;;;;;;5082685;28;20047;-79
2022/01/07 10:15:23;;;;;;;3.70;0.82;;;4.60;99.90;;;;;;5077257;28;20988;-80
2022/01/07 10:17:59;;;;;;;3.40;0.82;;;4.70;99.90;;;;;;5077779;28;20545;-80
2022/01/07 10:20:31;;;;;;;4.47;1.00;;;4.70;99.90;;;;;;5083174;28;20039;-80
2022/01/07 10:23:01;;;;;;;4.40;0.80;;;4.70;99.90;;;;;;5079484;28;20031;-80
2022/01/07 10:25:31;;;;;;;2.95;1.00;;;4.70;99.90;;;;;;5084288;28;20048;-80
2022/01/07 10:28:03;;;;;;;3.50;1.20;;;4.70;99.90;;;;;;5078575;28;20044;-80
2022/01/07 10:30:35;;;;;;;3.47;1.70;;;4.60;99.90;;;;;;5077124;28;20142;-80
2022/01/07 10:33:13;;;;;;;5.20;2.15;;;4.60;99.90;;;;;;5075850;28;20204;-80
2022/01/07 10:35:39;;;;;;;3.33;2.00;;;4.60;99.90;;;;;;5081291;28;20127;-80
2022/01/07 10:38:04;;;;;;;4.90;2.83;;;4.50;99.90;;;;;;5080952;28;20123;-79
2022/01/07 10:40:40;;;;;;;4.97;3.40;;;4.50;99.90;;;;;;5078962;28;20059;-80
2022/01/07 10:43:24;;;;;;;8.75;4.90;;;4.40;99.90;;;;;;5076368;28;20036;-80
2022/01/07 10:46:27;;;;;;;10.40;5.72;;;4.50;99.90;;;;;;5079949;28;20097;-80
2022/01/07 10:49:04;;;;;;;11.68;6.10;;;4.60;99.90;;;;;;5082545;28;20647;-80
2022/01/07 10:51:38;;;;;;;9.48;5.25;;;4.80;99.90;;;;;;5100369;28;20056;-79
2022/01/07 10:54:07;;;;;;;10.07;4.70;;;4.80;99.90;;;;;;5079442;28;20082;-80
2022/01/07 10:56:42;;;;;;;9.52;4.70;;;4.80;99.90;;;;;;5081112;28;20048;-81
2022/01/07 10:59:13;;;;;;;7.03;4.20;;;4.90;99.90;;;;;;5080604;28;20039;-79
2022/01/07 11:01:50;;;;;;;7.60;3.80;;;4.90;99.90;;;;;;5081180;28;20040;-81
2022/01/07 11:04:21;;;;;;;5.68;2.90;;;4.90;99.90;;;;;;5084748;28;20965;-80
2022/01/07 11:06:51;;;;;;;6.45;2.75;;;5.00;99.90;;;;;;5074768;28;20035;-79
2022/01/07 11:09:17;;;;;;;7.97;3.80;;;5.00;99.90;;;;;;5111630;27;20035;-80
2022/01/07 11:11:50;;;;;;;9.15;4.38;;;5.10;99.90;;;;;;5086976;28;20028;-83
2022/01/07 11:14:19;;;;;;;10.20;5.00;;;5.30;99.90;;;;;;5097343;27;20099;-81
2022/01/07 11:16:45;;;;;;;11.55;6.43;;;5.40;99.90;;;;;;5082508;28;20036;-81
2022/01/07 11:19:11;;;;;;;11.55;6.60;;;5.50;99.90;;;;;;5096032;28;20127;-80
2022/01/07 11:21:39;;;;;;;9.15;7.43;;;5.50;99.90;;;;;;5079346;28;20042;-82
2022/01/07 11:24:34;;;;;;;16.63;8.52;;;5.50;99.90;;;;;;5085063;28;20048;-81
2022/01/07 11:27:21;;;;;;;16.98;8.75;;;5.60;99.90;;;;;;5116237;27;20044;-81
2022/01/07 11:30:17;;;;;;;13.55;9.43;;;5.60;99.90;;;;;;5115383;27;20044;-81
2022/01/07 11:32:47;;;;;;;;;;;5.50;99.90;;;;;;5086052;28;21569;-80
2022/01/07 11:35:19;;;;;;;21.58;9.85;;;5.50;99.90;;;;;;5079262;28;20010;-81
2022/01/07 11:37:48;;;;;;;16.35;9.65;;;5.50;99.90;;;;;;5082513;28;20071;-81
2022/01/07 11:40:30;;;;;;;16.85;10.23;;;5.40;99.90;;;;;;5086199;28;20429;-80
2022/01/07 11:42:58;;;;;;;14.63;9.90;;;5.40;99.90;;;;;;5077577;28;20040;-80
2022/01/07 11:45:31;;;;;;;14.07;9.98;;;5.40;99.90;;;;;;5082431;28;20782;-81
2022/01/07 11:48:24;;;;;;;16.95;10.07;;;5.40;99.90;;;;;;5110087;27;20502;-80
2022/01/07 11:50:58;;;;;;;14.18;9.48;;;5.40;99.90;;;;;;5085530;28;20052;-81
2022/01/07 11:53:24;;;;;;;17.73;9.02;;;5.30;99.90;;;;;;5081454;28;20093;-81
2022/01/07 11:55:51;;;;;;;18.77;8.15;;;5.40;99.90;;;;;;5080149;28;20052;-81
2022/01/07 11:58:18;;;;;;;9.05;5.95;;;5.30;99.90;;;;;;5081118;28;20552;-81
2022/01/07 12:00:56;;;;;;;7.28;3.50;;;5.40;99.90;;;;;;5081539;28;20397;-81
2022/01/07 12:03:43;;;;;;;8.40;2.03;;;5.40;99.90;;;;;;5083878;28;20039;-81
2022/01/07 12:06:20;;;;;;;4.88;1.70;;;5.40;99.90;;;;;;5076482;28;20071;-81
2022/01/07 12:09:37;;;;;;;7.25;1.58;;;5.40;99.90;;;;;;5107674;27;20178;-81
2022/01/07 12:12:02;;;;;;;6.28;1.10;;;5.50;99.90;;;;;;5077624;28;20483;-81
2022/01/07 12:14:37;;;;;;;8.68;0.75;;;5.80;99.90;;;;;;5108206;27;20135;-81
2022/01/07 12:17:05;;;;;;;3.67;0.88;;;5.90;99.90;;;;;;5090916;28;20084;-81
2022/01/07 12:19:37;;;;;;;6.68;0.82;;;5.80;99.90;;;;;;5083597;28;20039;-82
2022/01/07 12:22:10;;;;;;;5.97;1.73;;;5.80;99.90;;;;;;5083363;28;20040;-82
2022/01/07 12:24:35;;;;;;;6.95;1.00;;;5.80;99.90;;;;;;5081529;28;20573;-81
2022/01/07 12:27:23;;;;;;;5.50;0.80;;;5.80;99.90;;;;;;5111091;27;20048;-82
2022/01/07 12:29:51;;;;;;;6.10;1.00;;;5.60;99.90;;;;;;5081995;28;20044;-81
2022/01/07 12:32:18;;;;;;;5.75;1.20;;;5.50;99.90;;;;;;5086055;28;20483;-81
2022/01/07 12:34:47;;;;;;;5.53;0.60;;;5.40;99.90;;;;;;5084715;28;20445;-81
2022/01/07 12:37:15;;;;;;;3.90;0.70;;;5.40;99.90;;;;;;5084525;28;20048;-81
2022/01/07 12:39:47;;;;;;;5.43;0.70;;;5.30;99.90;;;;;;5086059;28;20044;-81
2022/01/07 12:42:13;;;;;;;6.60;0.90;;;5.40;99.90;;;;;;5068437;28;20062;-81
2022/01/07 12:44:43;;;;;;;4.28;0.55;;;5.40;99.90;;;;;;5084146;28;20052;-81
2022/01/07 12:47:13;;;;;;;8.45;2.20;;;5.50;99.90;;;;;;5112424;27;20143;-81
2022/01/07 12:49:45;;;;;;;7.40;1.10;;;5.50;99.90;;;;;;5087025;28;20131;-82
2022/01/07 12:52:23;;;;;;;4.70;0.80;;;5.40;99.90;;;;;;5069254;28;20059;-81
2022/01/07 12:54:59;;;;;;;3.33;0.77;;;5.40;99.90;;;;;;5081845;28;20499;-82
2022/01/07 12:57:36;;;;;;;4.53;0.80;;;5.30;99.90;;;;;;5087653;28;20788;-82
2022/01/07 13:00:12;;;;;;;6.70;1.00;;;5.30;99.90;;;;;;5116606;27;20039;-81
2022/01/07 13:02:40;;;;;;;2.85;0.70;;;5.40;99.90;;;;;;5090200;28;20064;-82
2022/01/07 13:05:14;;;;;;;4.53;0.80;;;5.40;99.90;;;;;;5094404;28;20466;-82